QFA2532 ZBAD-RKSI
Flight info
| Callsign | QFA2532 |
|---|---|
| Flight time | 1h 25m |
| Altitude | 29100 |
| Route | MUGLO4K MUGLO W34 VAPGU W100 ORAVA W201 UNSEK A326 DONVO G597 AGAVO/N0412F290 Y644 REBIT REBIT1Y |
| Aircraft | A339/H-SADE1E2E3GHIJ3J5M1P2RWXY/LB2D1 |
Departure
| Time | 2026-04-18 01:48 |
|---|---|
| Airport | Beijing Daxing International Airport (ZBAD) |
Arrival
| Time | 2026-04-18 03:13 |
|---|---|
| Airport | Incheon International Airport (RKSI) |
| Time | Latitude | Longitude | Altitude | Speed | Heading |
|---|---|---|---|---|---|
| 2026-04-18 01:45 | 39.51646 | 116.43251 | 100 ft | 0 kts | 103° |
| 2026-04-18 01:47 | 39.51603 | 116.43489 | 100 ft | 70 kts | 103° |
| 2026-04-18 01:47 | 39.51446 | 116.44465 | 96 ft | 148 kts | 103° |
| 2026-04-18 01:47 | 39.51170 | 116.45926 | 502 ft | 171 kts | 102° |
| 2026-04-18 01:48 | 39.50926 | 116.47421 | 1414 ft | 174 kts | 103° |
| 2026-04-18 01:48 | 39.50670 | 116.49062 | 1922 ft | 199 kts | 104° |
| 2026-04-18 01:48 | 39.50352 | 116.50974 | 2067 ft | 236 kts | 105° |
| 2026-04-18 01:48 | 39.49954 | 116.53181 | 2078 ft | 261 kts | 105° |
| 2026-04-18 01:49 | 39.49529 | 116.55470 | 2083 ft | 262 kts | 106° |
| 2026-04-18 01:49 | 39.49101 | 116.57748 | 2083 ft | 264 kts | 106° |
| 2026-04-18 01:49 | 39.48668 | 116.60056 | 2082 ft | 264 kts | 106° |
| 2026-04-18 01:49 | 39.48234 | 116.62367 | 2081 ft | 264 kts | 106° |
| 2026-04-18 01:50 | 39.47801 | 116.64683 | 2082 ft | 264 kts | 106° |
| 2026-04-18 01:50 | 39.47428 | 116.67012 | 2076 ft | 264 kts | 103° |
| 2026-04-18 01:50 | 39.47098 | 116.69360 | 2080 ft | 266 kts | 103° |
| 2026-04-18 01:50 | 39.46771 | 116.71724 | 2080 ft | 265 kts | 103° |
| 2026-04-18 01:51 | 39.46440 | 116.74071 | 2077 ft | 266 kts | 104° |
| 2026-04-18 01:51 | 39.45980 | 116.76378 | 2060 ft | 263 kts | 118° |
| 2026-04-18 01:51 | 39.44909 | 116.78216 | 2066 ft | 254 kts | 144° |
| 2026-04-18 01:51 | 39.43376 | 116.79286 | 2087 ft | 251 kts | 162° |
| 2026-04-18 01:52 | 39.41727 | 116.80018 | 2085 ft | 250 kts | 165° |
| 2026-04-18 01:52 | 39.40072 | 116.80712 | 2085 ft | 250 kts | 165° |
| 2026-04-18 01:52 | 39.38432 | 116.81441 | 2081 ft | 249 kts | 164° |
| 2026-04-18 01:52 | 39.36823 | 116.82206 | 2077 ft | 250 kts | 163° |
| 2026-04-18 01:53 | 39.35202 | 116.83015 | 2079 ft | 250 kts | 162° |
| 2026-04-18 01:53 | 39.33584 | 116.83842 | 2076 ft | 249 kts | 162° |
| 2026-04-18 01:53 | 39.31977 | 116.84663 | 2076 ft | 249 kts | 162° |
| 2026-04-18 01:54 | 39.28729 | 116.86312 | 2075 ft | 251 kts | 163° |
| 2026-04-18 01:54 | 39.27101 | 116.87138 | 2072 ft | 251 kts | 163° |
| 2026-04-18 01:54 | 39.25477 | 116.87960 | 2076 ft | 250 kts | 163° |
| 2026-04-18 01:54 | 39.23867 | 116.88773 | 2050 ft | 250 kts | 163° |
| 2026-04-18 01:55 | 39.22227 | 116.89600 | 2438 ft | 253 kts | 163° |
| 2026-04-18 01:55 | 39.20609 | 116.90425 | 3359 ft | 248 kts | 163° |
| 2026-04-18 01:55 | 39.19009 | 116.91234 | 4046 ft | 252 kts | 163° |
| 2026-04-18 01:55 | 39.17352 | 116.92067 | 4717 ft | 257 kts | 162° |
| 2026-04-18 01:56 | 39.15689 | 116.92937 | 5431 ft | 260 kts | 157° |
| 2026-04-18 01:56 | 39.14206 | 116.94329 | 6116 ft | 270 kts | 138° |
| 2026-04-18 01:56 | 39.13113 | 116.96335 | 6781 ft | 279 kts | 119° |
| 2026-04-18 01:56 | 39.12545 | 116.98741 | 7495 ft | 285 kts | 101° |
| 2026-04-18 01:57 | 39.12442 | 117.01308 | 8205 ft | 288 kts | 95° |
| 2026-04-18 01:57 | 39.12366 | 117.03900 | 8914 ft | 291 kts | 95° |
| 2026-04-18 01:57 | 39.12260 | 117.06511 | 9643 ft | 293 kts | 96° |
| 2026-04-18 01:57 | 39.12135 | 117.09144 | 10229 ft | 300 kts | 96° |
| 2026-04-18 01:58 | 39.11992 | 117.11920 | 10416 ft | 321 kts | 96° |
| 2026-04-18 01:58 | 39.11836 | 117.14880 | 10609 ft | 340 kts | 96° |
| 2026-04-18 01:58 | 39.11679 | 117.17955 | 11127 ft | 346 kts | 96° |
| 2026-04-18 01:58 | 39.11522 | 117.21062 | 11752 ft | 349 kts | 96° |
| 2026-04-18 01:59 | 39.11364 | 117.24161 | 12356 ft | 352 kts | 96° |
| 2026-04-18 01:59 | 39.11200 | 117.27361 | 12978 ft | 356 kts | 96° |
| 2026-04-18 01:59 | 39.11035 | 117.30519 | 13579 ft | 359 kts | 96° |
| 2026-04-18 01:59 | 39.10865 | 117.33746 | 14141 ft | 363 kts | 96° |
| 2026-04-18 02:00 | 39.10692 | 117.37006 | 14657 ft | 367 kts | 96° |
| 2026-04-18 02:00 | 39.10516 | 117.40300 | 15160 ft | 371 kts | 95° |
| 2026-04-18 02:00 | 39.10338 | 117.43634 | 15679 ft | 375 kts | 95° |
| 2026-04-18 02:00 | 39.10156 | 117.47002 | 16188 ft | 379 kts | 95° |
| 2026-04-18 02:01 | 39.09973 | 117.50399 | 16702 ft | 383 kts | 95° |
| 2026-04-18 02:01 | 39.09787 | 117.53836 | 17212 ft | 387 kts | 95° |
| 2026-04-18 02:01 | 39.09598 | 117.57302 | 17723 ft | 390 kts | 95° |
| 2026-04-18 02:01 | 39.09405 | 117.60814 | 18216 ft | 395 kts | 95° |
| 2026-04-18 02:02 | 39.09211 | 117.64352 | 18712 ft | 397 kts | 95° |
| 2026-04-18 02:02 | 39.09016 | 117.67901 | 19233 ft | 399 kts | 95° |
| 2026-04-18 02:02 | 39.08818 | 117.71468 | 19740 ft | 401 kts | 95° |
| 2026-04-18 02:02 | 39.08619 | 117.75055 | 20238 ft | 403 kts | 95° |
| 2026-04-18 02:03 | 39.08420 | 117.78668 | 20759 ft | 405 kts | 95° |
| 2026-04-18 02:03 | 39.08220 | 117.82294 | 21269 ft | 408 kts | 95° |
| 2026-04-18 02:03 | 39.08018 | 117.85942 | 21773 ft | 410 kts | 95° |
| 2026-04-18 02:03 | 39.07813 | 117.89616 | 22293 ft | 413 kts | 95° |
| 2026-04-18 02:04 | 39.07605 | 117.93314 | 22794 ft | 415 kts | 96° |
| 2026-04-18 02:04 | 39.07395 | 117.97020 | 23297 ft | 418 kts | 96° |
| 2026-04-18 02:04 | 39.07181 | 118.00778 | 23777 ft | 421 kts | 95° |
| 2026-04-18 02:04 | 39.06879 | 118.04479 | 24172 ft | 423 kts | 101° |
| 2026-04-18 02:05 | 39.06292 | 118.08199 | 24587 ft | 425 kts | 103° |
| 2026-04-18 02:05 | 39.05689 | 118.11933 | 25011 ft | 428 kts | 103° |
| 2026-04-18 02:05 | 39.05091 | 118.15687 | 25437 ft | 430 kts | 103° |
| 2026-04-18 02:05 | 39.04490 | 118.19473 | 25842 ft | 433 kts | 103° |
| 2026-04-18 02:06 | 39.03886 | 118.23283 | 26250 ft | 436 kts | 103° |
| 2026-04-18 02:06 | 39.03278 | 118.27106 | 26663 ft | 438 kts | 103° |
| 2026-04-18 02:06 | 39.02663 | 118.30961 | 27058 ft | 441 kts | 103° |
| 2026-04-18 02:06 | 39.02043 | 118.34841 | 27466 ft | 443 kts | 103° |
| 2026-04-18 02:07 | 39.01419 | 118.38734 | 27858 ft | 446 kts | 103° |
| 2026-04-18 02:07 | 39.00790 | 118.42650 | 28237 ft | 449 kts | 103° |
| 2026-04-18 02:07 | 39.00155 | 118.46590 | 28625 ft | 451 kts | 103° |
| 2026-04-18 02:07 | 38.99516 | 118.50556 | 28962 ft | 455 kts | 103° |
| 2026-04-18 02:08 | 38.98871 | 118.54545 | 29065 ft | 455 kts | 103° |
| 2026-04-18 02:08 | 38.97564 | 118.62585 | 29120 ft | 470 kts | 103° |
| 2026-04-18 02:09 | 38.96226 | 118.70800 | 29120 ft | 469 kts | 103° |
| 2026-04-18 02:09 | 38.94882 | 118.79006 | 29121 ft | 469 kts | 103° |
| 2026-04-18 02:10 | 38.93532 | 118.87209 | 29126 ft | 469 kts | 103° |
| 2026-04-18 02:10 | 38.92176 | 118.95408 | 29126 ft | 469 kts | 103° |
| 2026-04-18 02:11 | 38.90816 | 119.03599 | 29128 ft | 469 kts | 103° |
| 2026-04-18 02:11 | 38.89445 | 119.11800 | 29131 ft | 469 kts | 103° |
| 2026-04-18 02:12 | 38.88069 | 119.19994 | 29129 ft | 469 kts | 103° |
| 2026-04-18 02:12 | 38.86699 | 119.28125 | 29131 ft | 469 kts | 103° |
| 2026-04-18 02:13 | 38.85314 | 119.36300 | 29137 ft | 469 kts | 103° |
| 2026-04-18 02:13 | 38.83923 | 119.44473 | 29137 ft | 468 kts | 103° |
| 2026-04-18 02:14 | 38.82766 | 119.51248 | 29135 ft | 468 kts | 103° |
| 2026-04-18 02:14 | 38.81367 | 119.59401 | 29136 ft | 468 kts | 103° |
| 2026-04-18 02:15 | 38.79964 | 119.67544 | 29138 ft | 468 kts | 104° |
| 2026-04-18 02:15 | 38.78556 | 119.75683 | 29142 ft | 467 kts | 104° |
| 2026-04-18 02:16 | 38.77142 | 119.83823 | 29147 ft | 467 kts | 104° |
| 2026-04-18 02:16 | 38.75790 | 119.91967 | 29143 ft | 467 kts | 103° |
| 2026-04-18 02:17 | 38.74463 | 120.00047 | 29146 ft | 467 kts | 103° |
| 2026-04-18 02:17 | 38.73098 | 120.08177 | 29149 ft | 466 kts | 103° |
| 2026-04-18 02:18 | 38.70777 | 120.15850 | 29147 ft | 462 kts | 124° |
| 2026-04-18 02:18 | 38.68793 | 120.19059 | 29151 ft | 460 kts | 136° |
| 2026-04-18 02:18 | 38.66352 | 120.21672 | 29155 ft | 457 kts | 148° |
| 2026-04-18 02:18 | 38.63565 | 120.23577 | 29151 ft | 454 kts | 160° |
| 2026-04-18 02:19 | 38.60545 | 120.24727 | 29157 ft | 452 kts | 168° |
| 2026-04-18 02:19 | 38.57554 | 120.26007 | 29152 ft | 455 kts | 157° |
| 2026-04-18 02:19 | 38.54818 | 120.28032 | 29157 ft | 457 kts | 145° |
| 2026-04-18 02:19 | 38.52439 | 120.30736 | 29154 ft | 459 kts | 134° |
| 2026-04-18 02:20 | 38.50528 | 120.34005 | 29158 ft | 461 kts | 122° |
| 2026-04-18 02:20 | 38.49163 | 120.37713 | 29156 ft | 463 kts | 110° |
| 2026-04-18 02:20 | 38.48404 | 120.41714 | 29156 ft | 465 kts | 98° |
| 2026-04-18 02:20 | 38.48288 | 120.45838 | 29155 ft | 466 kts | 86° |
| 2026-04-18 02:21 | 38.48826 | 120.49925 | 29158 ft | 468 kts | 75° |
| 2026-04-18 02:21 | 38.49974 | 120.53741 | 29155 ft | 468 kts | 63° |
| 2026-04-18 02:21 | 38.51609 | 120.57340 | 29152 ft | 468 kts | 59° |
| 2026-04-18 02:21 | 38.53044 | 120.61063 | 29104 ft | 467 kts | 70° |
| 2026-04-18 02:22 | 38.53882 | 120.65059 | 29057 ft | 466 kts | 82° |
| 2026-04-18 02:22 | 38.54082 | 120.69198 | 29055 ft | 465 kts | 93° |
| 2026-04-18 02:22 | 38.53653 | 120.73280 | 29060 ft | 463 kts | 103° |
| 2026-04-18 02:23 | 38.52064 | 120.81260 | 29061 ft | 463 kts | 105° |
| 2026-04-18 02:23 | 38.50590 | 120.89218 | 29061 ft | 463 kts | 103° |
| 2026-04-18 02:24 | 38.49241 | 120.97269 | 29063 ft | 464 kts | 103° |
| 2026-04-18 02:24 | 38.47912 | 121.05331 | 29063 ft | 463 kts | 103° |
| 2026-04-18 02:25 | 38.46577 | 121.13382 | 29064 ft | 463 kts | 103° |
| 2026-04-18 02:25 | 38.45254 | 121.21431 | 29067 ft | 464 kts | 102° |
| 2026-04-18 02:26 | 38.43954 | 121.29488 | 29066 ft | 464 kts | 102° |
| 2026-04-18 02:26 | 38.42657 | 121.37544 | 29067 ft | 463 kts | 102° |
| 2026-04-18 02:27 | 38.41351 | 121.45593 | 29071 ft | 464 kts | 102° |
| 2026-04-18 02:27 | 38.40023 | 121.53632 | 29074 ft | 463 kts | 103° |
| 2026-04-18 02:28 | 38.38679 | 121.61663 | 29067 ft | 463 kts | 103° |
| 2026-04-18 02:28 | 38.37339 | 121.69654 | 29070 ft | 463 kts | 103° |
| 2026-04-18 02:29 | 38.35988 | 121.77683 | 29073 ft | 463 kts | 103° |
| 2026-04-18 02:29 | 38.34633 | 121.85705 | 29068 ft | 463 kts | 103° |
| 2026-04-18 02:30 | 38.33271 | 121.93733 | 29071 ft | 463 kts | 103° |
| 2026-04-18 02:30 | 38.31903 | 122.01754 | 29078 ft | 463 kts | 103° |
| 2026-04-18 02:31 | 38.30531 | 122.09772 | 29074 ft | 464 kts | 103° |
| 2026-04-18 02:31 | 38.29162 | 122.17735 | 29075 ft | 463 kts | 103° |
| 2026-04-18 02:32 | 38.27779 | 122.25745 | 29081 ft | 463 kts | 103° |
| 2026-04-18 02:32 | 38.26587 | 122.33808 | 29079 ft | 464 kts | 100° |
| 2026-04-18 02:33 | 38.25338 | 122.41866 | 29088 ft | 463 kts | 108° |
| 2026-04-18 02:33 | 38.24061 | 122.45621 | 29080 ft | 462 kts | 120° |
| 2026-04-18 02:33 | 38.22223 | 122.48956 | 29079 ft | 461 kts | 132° |
| 2026-04-18 02:34 | 38.17709 | 122.54739 | 29084 ft | 461 kts | 136° |
| 2026-04-18 02:34 | 38.13192 | 122.60524 | 29081 ft | 461 kts | 135° |
| 2026-04-18 02:35 | 38.08675 | 122.66332 | 29089 ft | 462 kts | 135° |
| 2026-04-18 02:35 | 38.04185 | 122.72172 | 29085 ft | 462 kts | 135° |
| 2026-04-18 02:36 | 37.99724 | 122.77975 | 29084 ft | 462 kts | 135° |
| 2026-04-18 02:36 | 37.95226 | 122.83806 | 29082 ft | 463 kts | 135° |
| 2026-04-18 02:37 | 37.90717 | 122.89637 | 29103 ft | 463 kts | 135° |
| 2026-04-18 02:37 | 37.86204 | 122.95463 | 29076 ft | 464 kts | 135° |
| 2026-04-18 02:38 | 37.81684 | 123.01286 | 29093 ft | 464 kts | 136° |
| 2026-04-18 02:38 | 37.77149 | 123.07117 | 29096 ft | 465 kts | 136° |
| 2026-04-18 02:39 | 37.72617 | 123.12936 | 29081 ft | 465 kts | 136° |
| 2026-04-18 02:39 | 37.68071 | 123.18759 | 29090 ft | 466 kts | 136° |
| 2026-04-18 02:40 | 37.63514 | 123.24587 | 29093 ft | 466 kts | 136° |
| 2026-04-18 02:40 | 37.58949 | 123.30413 | 29097 ft | 467 kts | 136° |
| 2026-04-18 02:41 | 37.54704 | 123.36559 | 29097 ft | 470 kts | 128° |
| 2026-04-18 02:41 | 37.50803 | 123.43176 | 29100 ft | 471 kts | 128° |
| 2026-04-18 02:42 | 37.46871 | 123.49785 | 29094 ft | 472 kts | 129° |
| 2026-04-18 02:42 | 37.42919 | 123.56398 | 29098 ft | 473 kts | 129° |
| 2026-04-18 02:43 | 37.38954 | 123.63019 | 29099 ft | 475 kts | 129° |
| 2026-04-18 02:43 | 37.34974 | 123.69653 | 29102 ft | 476 kts | 129° |
| 2026-04-18 02:44 | 37.30977 | 123.76300 | 29098 ft | 477 kts | 129° |
| 2026-04-18 02:44 | 37.26968 | 123.82956 | 29103 ft | 478 kts | 129° |
| 2026-04-18 02:45 | 37.22945 | 123.89621 | 29101 ft | 479 kts | 129° |
| 2026-04-18 02:45 | 37.18990 | 123.96306 | 29097 ft | 482 kts | 124° |
| 2026-04-18 02:45 | 37.17485 | 124.00081 | 29103 ft | 486 kts | 112° |
| 2026-04-18 02:46 | 37.16585 | 124.04171 | 29101 ft | 489 kts | 101° |
| 2026-04-18 02:46 | 37.16331 | 124.08425 | 29102 ft | 490 kts | 89° |
| 2026-04-18 02:46 | 37.16611 | 124.12691 | 29103 ft | 491 kts | 83° |
| 2026-04-18 02:47 | 37.17352 | 124.21203 | 29100 ft | 491 kts | 85° |
| 2026-04-18 02:47 | 37.17769 | 124.29757 | 29103 ft | 492 kts | 88° |
| 2026-04-18 02:48 | 37.17975 | 124.38355 | 29101 ft | 492 kts | 89° |
| 2026-04-18 02:48 | 37.18164 | 124.46932 | 29103 ft | 492 kts | 89° |
| 2026-04-18 02:49 | 37.18354 | 124.55465 | 29101 ft | 493 kts | 89° |
| 2026-04-18 02:49 | 37.18544 | 124.64056 | 29096 ft | 493 kts | 89° |
| 2026-04-18 02:50 | 37.18729 | 124.72656 | 29101 ft | 493 kts | 89° |
| 2026-04-18 02:50 | 37.18907 | 124.81269 | 29099 ft | 494 kts | 89° |
| 2026-04-18 02:51 | 37.19079 | 124.89884 | 29099 ft | 494 kts | 89° |
| 2026-04-18 02:51 | 37.19245 | 124.98491 | 28789 ft | 492 kts | 89° |
| 2026-04-18 02:51 | 37.19325 | 125.02772 | 28217 ft | 489 kts | 89° |
| 2026-04-18 02:52 | 37.19403 | 125.07036 | 27501 ft | 488 kts | 89° |
| 2026-04-18 02:52 | 37.19479 | 125.11279 | 26666 ft | 486 kts | 89° |
| 2026-04-18 02:52 | 37.19552 | 125.15489 | 26031 ft | 479 kts | 88° |
| 2026-04-18 02:52 | 37.19623 | 125.19576 | 25460 ft | 470 kts | 88° |
| 2026-04-18 02:53 | 37.19699 | 125.23636 | 24881 ft | 462 kts | 88° |
| 2026-04-18 02:53 | 37.19762 | 125.27634 | 24313 ft | 454 kts | 88° |
| 2026-04-18 02:53 | 37.19822 | 125.31561 | 23768 ft | 446 kts | 88° |
| 2026-04-18 02:53 | 37.19881 | 125.35423 | 23062 ft | 439 kts | 88° |
| 2026-04-18 02:54 | 37.19939 | 125.39235 | 22282 ft | 435 kts | 88° |
| 2026-04-18 02:54 | 37.19997 | 125.43000 | 21539 ft | 430 kts | 88° |
| 2026-04-18 02:54 | 37.19920 | 125.46725 | 20768 ft | 426 kts | 94° |
| 2026-04-18 02:54 | 37.19461 | 125.50373 | 20038 ft | 422 kts | 101° |
| 2026-04-18 02:55 | 37.18643 | 125.53888 | 19302 ft | 419 kts | 108° |
| 2026-04-18 02:55 | 37.17644 | 125.57302 | 18567 ft | 414 kts | 108° |
| 2026-04-18 02:55 | 37.16673 | 125.60681 | 17776 ft | 410 kts | 108° |
| 2026-04-18 02:55 | 37.15720 | 125.64030 | 16968 ft | 405 kts | 108° |
| 2026-04-18 02:56 | 37.14842 | 125.67128 | 16206 ft | 400 kts | 107° |
| 2026-04-18 02:56 | 37.13912 | 125.70400 | 15418 ft | 395 kts | 107° |
| 2026-04-18 02:56 | 37.12095 | 125.76788 | 13842 ft | 387 kts | 107° |
| 2026-04-18 02:57 | 37.11286 | 125.79984 | 12962 ft | 381 kts | 102° |
| 2026-04-18 02:57 | 37.10828 | 125.83224 | 12147 ft | 374 kts | 94° |
| 2026-04-18 02:57 | 37.10571 | 125.86453 | 11318 ft | 370 kts | 94° |
| 2026-04-18 02:57 | 37.10307 | 125.89654 | 10505 ft | 367 kts | 94° |
| 2026-04-18 02:58 | 37.10036 | 125.92810 | 9702 ft | 363 kts | 95° |
| 2026-04-18 02:58 | 37.09764 | 125.95891 | 9378 ft | 346 kts | 95° |
| 2026-04-18 02:58 | 37.09503 | 125.98798 | 9160 ft | 326 kts | 95° |
| 2026-04-18 02:58 | 37.09266 | 126.01538 | 8965 ft | 306 kts | 92° |
| 2026-04-18 02:59 | 37.09247 | 126.04079 | 8769 ft | 287 kts | 86° |
| 2026-04-18 02:59 | 37.09289 | 126.06548 | 8263 ft | 281 kts | 87° |
| 2026-04-18 02:59 | 37.09322 | 126.08963 | 7970 ft | 269 kts | 87° |
| 2026-04-18 02:59 | 37.09346 | 126.11226 | 7815 ft | 251 kts | 87° |
| 2026-04-18 03:00 | 37.09366 | 126.13341 | 7675 ft | 235 kts | 87° |
| 2026-04-18 03:00 | 37.09385 | 126.15360 | 7363 ft | 230 kts | 86° |
| 2026-04-18 03:00 | 37.09404 | 126.17334 | 7164 ft | 224 kts | 86° |
| 2026-04-18 03:00 | 37.09426 | 126.19333 | 7072 ft | 231 kts | 86° |
| 2026-04-18 03:01 | 37.09445 | 126.21326 | 7020 ft | 228 kts | 86° |
| 2026-04-18 03:01 | 37.09463 | 126.23314 | 7022 ft | 229 kts | 86° |
| 2026-04-18 03:01 | 37.09700 | 126.25265 | 7025 ft | 225 kts | 68° |
| 2026-04-18 03:01 | 37.10519 | 126.26969 | 7040 ft | 242 kts | 52° |
| 2026-04-18 03:02 | 37.11574 | 126.28713 | 7019 ft | 255 kts | 52° |
| 2026-04-18 03:02 | 37.12632 | 126.30505 | 7018 ft | 255 kts | 53° |
| 2026-04-18 03:02 | 37.13322 | 126.31699 | 7014 ft | 256 kts | 53° |
| 2026-04-18 03:02 | 37.14357 | 126.33513 | 6991 ft | 255 kts | 53° |
| 2026-04-18 03:03 | 37.15354 | 126.35345 | 6728 ft | 253 kts | 59° |
| 2026-04-18 03:03 | 37.16102 | 126.38099 | 6104 ft | 254 kts | 79° |
| 2026-04-18 03:03 | 37.16271 | 126.39577 | 5696 ft | 253 kts | 80° |
| 2026-04-18 03:03 | 37.16527 | 126.41751 | 5019 ft | 257 kts | 80° |
| 2026-04-18 03:04 | 37.16805 | 126.43970 | 4388 ft | 257 kts | 80° |
| 2026-04-18 03:04 | 37.17084 | 126.46125 | 4182 ft | 242 kts | 79° |
| 2026-04-18 03:04 | 37.17350 | 126.48140 | 4042 ft | 227 kts | 79° |
| 2026-04-18 03:04 | 37.17607 | 126.50066 | 3798 ft | 222 kts | 79° |
| 2026-04-18 03:05 | 37.17859 | 126.51949 | 3699 ft | 222 kts | 79° |
| 2026-04-18 03:05 | 37.18166 | 126.53861 | 3600 ft | 222 kts | 71° |
| 2026-04-18 03:05 | 37.18829 | 126.55581 | 3610 ft | 220 kts | 54° |
| 2026-04-18 03:05 | 37.19744 | 126.57120 | 3605 ft | 220 kts | 52° |
| 2026-04-18 03:06 | 37.20659 | 126.58666 | 3607 ft | 221 kts | 53° |
| 2026-04-18 03:06 | 37.21557 | 126.60225 | 3615 ft | 221 kts | 53° |
| 2026-04-18 03:06 | 37.22453 | 126.61804 | 3610 ft | 221 kts | 53° |
| 2026-04-18 03:06 | 37.23525 | 126.63133 | 3603 ft | 218 kts | 27° |
| 2026-04-18 03:07 | 37.24999 | 126.63454 | 3605 ft | 223 kts | 351° |
| 2026-04-18 03:07 | 37.26422 | 126.62818 | 3703 ft | 211 kts | 333° |
| 2026-04-18 03:07 | 37.27616 | 126.61876 | 3744 ft | 194 kts | 327° |
| 2026-04-18 03:07 | 37.28699 | 126.60931 | 3824 ft | 195 kts | 326° |
| 2026-04-18 03:08 | 37.29876 | 126.59895 | 3810 ft | 212 kts | 326° |
| 2026-04-18 03:08 | 37.31074 | 126.58831 | 3646 ft | 207 kts | 326° |
| 2026-04-18 03:08 | 37.32212 | 126.57822 | 3426 ft | 193 kts | 326° |
| 2026-04-18 03:08 | 37.33283 | 126.56873 | 3194 ft | 184 kts | 326° |
| 2026-04-18 03:09 | 37.34292 | 126.55977 | 2969 ft | 170 kts | 326° |
| 2026-04-18 03:09 | 37.35208 | 126.55163 | 2761 ft | 152 kts | 326° |
| 2026-04-18 03:09 | 37.36038 | 126.54428 | 2553 ft | 144 kts | 326° |
| 2026-04-18 03:09 | 37.36862 | 126.53696 | 2357 ft | 141 kts | 326° |
| 2026-04-18 03:10 | 37.37677 | 126.52972 | 2165 ft | 146 kts | 327° |
| 2026-04-18 03:10 | 37.38484 | 126.52254 | 1977 ft | 143 kts | 327° |
| 2026-04-18 03:10 | 37.39302 | 126.51528 | 1767 ft | 140 kts | 326° |
| 2026-04-18 03:10 | 37.40115 | 126.50805 | 1593 ft | 145 kts | 326° |
| 2026-04-18 03:11 | 37.40920 | 126.50088 | 1391 ft | 143 kts | 326° |
| 2026-04-18 03:11 | 37.41734 | 126.49370 | 1106 ft | 144 kts | 324° |
| 2026-04-18 03:11 | 37.42556 | 126.48639 | 759 ft | 145 kts | 323° |
| 2026-04-18 03:11 | 37.43352 | 126.47930 | 519 ft | 141 kts | 322° |
| 2026-04-18 03:12 | 37.44159 | 126.47200 | 333 ft | 140 kts | 322° |
| 2026-04-18 03:12 | 37.44959 | 126.46482 | 177 ft | 143 kts | 324° |
| 2026-04-18 03:12 | 37.45774 | 126.45769 | 40 ft | 139 kts | 323° |
| 2026-04-18 03:12 | 37.46430 | 126.45191 | 35 ft | 89 kts | 326° |
| 2026-04-18 03:13 | 37.46823 | 126.44844 | 39 ft | 61 kts | 325° |
| 2026-04-18 03:13 | 37.47142 | 126.44536 | 38 ft | 56 kts | 312° |
| 2026-04-18 03:13 | 37.47333 | 126.44138 | 38 ft | 51 kts | 311° |
| 2026-04-18 03:13 | 37.47594 | 126.43870 | 38 ft | 39 kts | 314° |
| 2026-04-18 03:14 | 37.47574 | 126.43738 | 38 ft | 13 kts | 206° |
| 2026-04-18 03:14 | 37.47506 | 126.43647 | 38 ft | 17 kts | 229° |
| 2026-04-18 03:14 | 37.47521 | 126.43530 | 38 ft | 13 kts | 315° |
| 2026-04-18 03:14 | 37.47583 | 126.43492 | 38 ft | 0 kts | 326° |